North Durham, North Carolina
Current Conditions -  °F | °C
As of 8:35 PM on Thursday 18 Dec 2014 (Local Time) from KTDF Reporting Station
Overcast Overcast  
Wind Chill: 43°   Ceiling: 7000
Heat Index: 43°   Visibility: 10mi
Dew Point: 27°   Wind: 0mph
Humidity: 53%   Direction: NA
Pressure: 30.11"   Gusts: NA
Location:  36.0947°N, 78.9284°W
Report Text: KTDF 190135Z AUTO 00000KT 10SM OVC070 06/M03 A3011 RMK AO2
Loading
Personal Weather Stations






























Interactive Weather Map New forecast layout! Learn more

10-Day Weather Forecast

Advertisements
Track Severe Weather on mobile